createdAt,value
2022-09-16T00:01:01.062Z,12.30
2022-09-16T00:03:47.220Z,12.30
2022-09-16T00:06:26.985Z,12.30
2022-09-16T00:08:57.411Z,12.20
2022-09-16T00:11:27.254Z,12.20
2022-09-16T00:13:57.142Z,12.20
2022-09-16T00:16:27.247Z,12.20
2022-09-16T00:18:59.451Z,12.30
2022-09-16T00:21:28.790Z,12.40
2022-09-16T00:23:56.623Z,12.40
2022-09-16T00:26:24.091Z,12.50
2022-09-16T00:28:51.429Z,12.50
2022-09-16T00:31:18.677Z,12.50
2022-09-16T00:33:45.720Z,12.60
2022-09-16T00:36:18.740Z,12.60
2022-09-16T00:38:45.837Z,12.60
2022-09-16T00:41:20.971Z,12.70
2022-09-16T00:43:58.665Z,12.70
2022-09-16T00:46:40.187Z,12.70
2022-09-16T00:49:20.952Z,12.70
2022-09-16T00:51:50.983Z,12.70
2022-09-16T00:54:19.494Z,12.70
2022-09-16T00:56:51.110Z,12.70
2022-09-16T00:59:31.589Z,12.60
2022-09-16T01:02:05.639Z,12.60
2022-09-16T01:04:38.661Z,12.50
2022-09-16T01:07:06.021Z,12.40
2022-09-16T01:09:35.985Z,12.30
2022-09-16T01:12:03.115Z,12.20
2022-09-16T01:14:30.587Z,12.10
2022-09-16T01:17:25.464Z,12.00
2022-09-16T01:20:23.520Z,12.00
2022-09-16T01:23:25.884Z,11.90
2022-09-16T01:26:17.823Z,11.90
2022-09-16T01:28:53.723Z,11.80
2022-09-16T01:31:24.543Z,11.80
2022-09-16T01:34:10.936Z,11.80
2022-09-16T01:37:25.423Z,11.80
2022-09-16T01:39:55.638Z,11.80
2022-09-16T01:42:37.300Z,11.80
2022-09-16T01:45:13.539Z,11.80
2022-09-16T01:48:13.809Z,11.70
2022-09-16T01:50:56.738Z,11.70
2022-09-16T01:53:32.565Z,11.60
2022-09-16T01:56:08.701Z,11.60
2022-09-16T01:58:48.935Z,11.60
2022-09-16T02:01:45.270Z,11.60
2022-09-16T02:04:22.130Z,11.60
2022-09-16T02:06:52.059Z,11.70
2022-09-16T02:09:23.759Z,11.70
2022-09-16T02:11:54.124Z,11.70
2022-09-16T02:14:31.100Z,11.80
2022-09-16T02:17:09.927Z,11.80
2022-09-16T02:19:44.845Z,11.80
2022-09-16T02:22:18.123Z,11.80
2022-09-16T02:24:47.863Z,11.80
2022-09-16T02:27:19.631Z,11.90
2022-09-16T02:30:02.746Z,11.80
2022-09-16T02:32:35.881Z,11.80
2022-09-16T02:35:04.372Z,11.80
2022-09-16T02:37:41.704Z,11.80
2022-09-16T02:40:25.500Z,11.70
2022-09-16T02:42:53.003Z,11.70
2022-09-16T02:45:28.851Z,11.60
2022-09-16T02:48:04.635Z,11.60
2022-09-16T02:50:43.714Z,11.60
2022-09-16T02:53:19.500Z,11.60
2022-09-16T02:55:54.525Z,11.60
2022-09-16T02:58:21.898Z,11.60
2022-09-16T03:00:53.814Z,11.60
2022-09-16T03:03:21.928Z,11.60
2022-09-16T03:06:13.874Z,11.60
2022-09-16T03:08:42.642Z,11.50
2022-09-16T03:11:30.517Z,11.50
2022-09-16T03:14:16.635Z,11.50
2022-09-16T03:16:51.807Z,11.40
2022-09-16T03:19:44.254Z,11.40
2022-09-16T03:22:36.722Z,11.30
2022-09-16T03:25:21.980Z,11.30
2022-09-16T03:28:02.051Z,11.30
2022-09-16T03:30:34.816Z,11.40
2022-09-16T03:33:10.192Z,11.40
2022-09-16T03:35:43.724Z,11.40
2022-09-16T03:38:13.563Z,11.50
2022-09-16T03:40:42.877Z,11.50
2022-09-16T03:43:14.498Z,11.50
2022-09-16T03:45:43.020Z,11.50
2022-09-16T03:48:11.138Z,11.50
2022-09-16T03:50:38.546Z,11.50
2022-09-16T03:53:05.863Z,11.40
2022-09-16T03:55:32.904Z,11.40
2022-09-16T03:58:00.301Z,11.40
2022-09-16T04:00:27.582Z,11.30
2022-09-16T04:02:57.130Z,11.20
2022-09-16T04:05:24.461Z,11.30
2022-09-16T04:07:51.669Z,11.20
2022-09-16T04:10:19.300Z,11.10
2022-09-16T04:12:46.746Z,11.00
2022-09-16T04:15:14.021Z,11.00
2022-09-16T04:17:43.510Z,11.00
2022-09-16T04:20:11.082Z,10.90
2022-09-16T04:22:38.389Z,10.90
2022-09-16T04:25:05.830Z,11.00
2022-09-16T04:27:32.992Z,11.00
2022-09-16T04:30:00.208Z,11.00
2022-09-16T04:32:27.464Z,11.10
2022-09-16T04:34:54.594Z,11.20
2022-09-16T04:37:21.914Z,11.30
2022-09-16T04:39:49.145Z,11.40
2022-09-16T04:42:16.258Z,11.40
2022-09-16T04:44:48.348Z,11.50
2022-09-16T04:47:15.551Z,11.50
2022-09-16T04:49:42.692Z,11.50
2022-09-16T04:52:12.566Z,11.60
2022-09-16T04:54:42.133Z,11.70
2022-09-16T04:57:09.407Z,11.80
2022-09-16T04:59:36.811Z,11.90
2022-09-16T05:02:04.014Z,12.00
2022-09-16T05:04:31.052Z,12.00
2022-09-16T05:06:58.278Z,12.00
2022-09-16T05:09:25.452Z,12.00
2022-09-16T05:11:52.897Z,12.20
2022-09-16T05:14:20.176Z,12.30
2022-09-16T05:16:47.557Z,12.30
2022-09-16T05:19:16.436Z,12.50
2022-09-16T05:21:43.719Z,13.00
2022-09-16T05:24:12.487Z,13.50
2022-09-16T05:26:43.406Z,14.90
2022-09-16T05:29:16.652Z,16.80
2022-09-16T05:31:45.701Z,18.80
2022-09-16T05:34:14.194Z,20.30
2022-09-16T05:36:42.477Z,21.60
2022-09-16T05:39:22.730Z,22.60
2022-09-16T05:41:55.722Z,23.40
2022-09-16T05:44:28.108Z,24.40
2022-09-16T05:46:55.803Z,25.30
2022-09-16T05:49:25.364Z,25.60
2022-09-16T05:51:53.915Z,26.30
2022-09-16T05:54:23.507Z,26.70
2022-09-16T05:56:50.754Z,27.70
2022-09-16T05:59:20.996Z,28.20
2022-09-16T06:01:48.482Z,28.90
2022-09-16T06:04:16.022Z,29.90
2022-09-16T06:06:47.025Z,30.60
2022-09-16T06:09:20.357Z,30.50
2022-09-16T06:11:51.982Z,31.80
2022-09-16T06:14:21.871Z,32.80
2022-09-16T06:16:51.007Z,32.80
2022-09-16T06:19:18.996Z,34.30
2022-09-16T06:21:46.884Z,34.40
2022-09-16T06:24:17.899Z,33.60
2022-09-16T06:26:46.391Z,31.50
2022-09-16T06:29:14.876Z,30.50
2022-09-16T06:31:42.570Z,31.10
2022-09-16T06:34:14.909Z,29.90
2022-09-16T06:36:45.141Z,29.00
2022-09-16T06:39:17.395Z,27.50
2022-09-16T06:41:55.051Z,28.20
2022-09-16T06:44:22.117Z,31.00
2022-09-16T06:46:49.311Z,34.00
2022-09-16T06:49:19.323Z,35.70
2022-09-16T06:51:48.705Z,34.70
2022-09-16T06:54:16.258Z,34.30
2022-09-16T06:56:43.753Z,34.00
2022-09-16T06:59:13.366Z,35.50
2022-09-16T07:01:43.048Z,37.10
2022-09-16T07:04:16.471Z,37.20
2022-09-16T07:09:31.539Z,37.90
2022-09-16T07:11:59.123Z,37.80
2022-09-16T07:14:27.640Z,36.60
2022-09-16T07:16:55.733Z,34.60
2022-09-16T07:21:50.922Z,38.40
2022-09-16T07:24:20.899Z,41.10
2022-09-16T07:26:48.617Z,43.10
2022-09-16T07:29:18.322Z,42.30
2022-09-16T07:31:45.709Z,40.30
2022-09-16T07:34:13.552Z,39.30
2022-09-16T07:36:45.937Z,38.20
2022-09-16T07:39:15.823Z,36.20
2022-09-16T07:41:45.080Z,34.20
2022-09-16T07:44:16.549Z,33.10
2022-09-16T07:46:44.240Z,36.50
2022-09-16T07:49:15.280Z,40.40
2022-09-16T07:51:42.942Z,39.40
2022-09-16T07:54:13.429Z,39.90
2022-09-16T07:56:41.545Z,42.20
2022-09-16T07:59:17.590Z,44.50
2022-09-16T08:01:48.941Z,45.10
2022-09-16T08:04:17.760Z,44.40
2022-09-16T08:06:45.497Z,42.20
2022-09-16T08:12:05.321Z,45.10
2022-09-16T08:14:35.212Z,45.20
2022-09-16T08:17:02.407Z,45.40
2022-09-16T08:19:29.816Z,42.10
2022-09-16T08:21:57.490Z,38.60
2022-09-16T08:24:24.614Z,36.30
2022-09-16T08:26:51.967Z,33.80
2022-09-16T08:29:19.236Z,32.00
2022-09-16T08:31:48.832Z,29.30
2022-09-16T08:34:19.913Z,27.20
2022-09-16T08:36:47.511Z,25.20
2022-09-16T08:39:14.513Z,23.70
2022-09-16T08:42:06.216Z,22.60
2022-09-16T08:44:53.221Z,22.10
2022-09-16T08:47:40.611Z,21.90
2022-09-16T08:50:16.205Z,22.00
2022-09-16T08:52:45.134Z,21.90
2022-09-16T08:55:22.430Z,22.00
2022-09-16T08:58:14.885Z,21.60
2022-09-16T09:03:13.746Z,20.10
2022-09-16T09:05:54.998Z,19.30
2022-09-16T09:08:41.292Z,18.70
2022-09-16T09:11:37.775Z,18.10
2022-09-16T09:14:20.719Z,17.60
2022-09-16T09:16:51.327Z,18.20
2022-09-16T09:19:24.750Z,20.80
2022-09-16T09:21:57.622Z,24.10
2022-09-16T09:24:46.922Z,26.60
2022-09-16T09:27:26.007Z,29.00
2022-09-16T09:30:02.527Z,31.10
2022-09-16T09:32:54.711Z,31.90
2022-09-16T09:35:37.520Z,32.60
2022-09-16T09:38:29.455Z,32.30
2022-09-16T09:41:11.492Z,30.90
2022-09-16T09:43:51.839Z,28.80
2022-09-16T09:46:40.317Z,27.10
2022-09-16T09:49:34.664Z,25.40
2022-09-16T09:52:07.797Z,23.90
2022-09-16T09:54:36.009Z,22.70
2022-09-16T09:57:06.251Z,22.00
2022-09-16T10:00:06.552Z,21.40
2022-09-16T10:02:37.697Z,21.00
2022-09-16T10:05:05.133Z,20.60
2022-09-16T10:07:32.351Z,20.40
2022-09-16T13:04:55.962Z,18.20
2022-09-16T13:07:27.471Z,18.30
2022-09-16T13:10:53.912Z,18.50
2022-09-16T13:13:42.099Z,18.80
2022-09-16T13:16:11.993Z,18.90
2022-09-16T13:18:43.846Z,18.80
2022-09-16T13:21:25.920Z,18.60
2022-09-16T13:24:14.859Z,18.50
2022-09-16T13:26:44.258Z,18.60
2022-09-16T13:29:41.317Z,18.60
2022-09-16T13:32:37.151Z,18.80
2022-09-16T13:35:19.561Z,18.80
2022-09-16T13:37:48.542Z,18.90
2022-09-16T13:40:24.095Z,19.00
2022-09-16T13:43:03.694Z,19.00
2022-09-16T13:45:39.543Z,18.90
2022-09-16T13:48:18.632Z,18.60
2022-09-16T13:50:52.017Z,18.50
2022-09-16T13:53:29.677Z,18.50
2022-09-16T13:56:21.742Z,18.40
2022-09-16T13:59:12.896Z,18.50
2022-09-16T14:02:10.725Z,18.50
2022-09-16T14:04:46.709Z,18.50
2022-09-16T14:07:32.852Z,18.60
2022-09-16T14:10:24.609Z,18.50
2022-09-16T14:13:04.534Z,18.40
2022-09-16T14:15:39.147Z,18.40
2022-09-16T14:18:07.154Z,18.40
2022-09-16T14:20:36.694Z,18.30
2022-09-16T14:23:17.662Z,18.30
2022-09-16T14:25:45.013Z,18.20
2022-09-16T14:28:20.859Z,18.10
2022-09-16T14:30:55.003Z,17.80
2022-09-16T14:33:56.861Z,17.60
2022-09-16T14:36:30.265Z,17.40
2022-09-16T14:39:00.734Z,17.20
2022-09-16T14:41:31.005Z,17.00
2022-09-16T14:44:27.212Z,17.00
2022-09-16T14:47:09.254Z,17.00
2022-09-16T14:49:44.401Z,17.10
2022-09-16T15:00:47.399Z,17.50
2022-09-16T15:03:25.525Z,17.40
2022-09-16T15:05:58.162Z,17.30
2022-09-16T15:08:30.328Z,17.20
2022-09-16T15:11:00.900Z,17.00
2022-09-16T15:13:35.326Z,16.80
2022-09-16T15:16:10.228Z,16.70
2022-09-16T15:19:02.271Z,16.50
2022-09-16T15:21:38.672Z,16.30
2022-09-16T15:24:22.528Z,16.10
2022-09-16T15:26:55.457Z,16.00
2022-09-16T15:29:25.216Z,15.90
2022-09-16T15:31:53.034Z,15.80
2022-09-16T15:34:24.139Z,15.70
2022-09-16T15:37:02.558Z,15.60
2022-09-16T15:39:39.370Z,15.50
2022-09-16T15:42:22.652Z,15.40
2022-09-16T15:44:52.003Z,15.30
2022-09-16T15:47:24.008Z,15.20
2022-09-16T15:50:00.430Z,15.10
2022-09-16T15:52:52.884Z,15.10
2022-09-16T15:55:40.278Z,15.10
2022-09-16T15:58:17.612Z,15.10
2022-09-16T16:00:59.140Z,15.10
2022-09-16T16:03:27.105Z,15.10
2022-09-16T16:05:54.838Z,15.10
2022-09-16T16:08:38.607Z,15.10
2022-09-16T16:11:11.226Z,15.10
2022-09-16T16:13:38.645Z,15.20
2022-09-16T16:16:06.497Z,15.20
2022-09-16T16:18:34.342Z,15.10
2022-09-16T16:21:09.580Z,15.10
2022-09-16T16:23:39.999Z,15.00
2022-09-16T16:26:10.676Z,14.90
2022-09-16T16:28:38.146Z,14.80
2022-09-16T16:31:25.693Z,14.70
2022-09-16T16:33:55.933Z,14.50
2022-09-16T16:36:23.248Z,14.40
2022-09-16T16:38:50.647Z,14.30
2022-09-16T16:41:24.509Z,14.10
2022-09-16T16:43:51.827Z,14.00
2022-09-16T16:46:21.514Z,13.90
2022-09-16T16:48:48.665Z,13.80
2022-09-16T16:51:16.083Z,13.70
2022-09-16T16:53:47.973Z,13.60
2022-09-16T16:56:15.739Z,13.40
2022-09-16T16:58:43.208Z,13.30
2022-09-16T17:01:18.740Z,13.30
2022-09-16T17:03:47.462Z,13.20
2022-09-16T17:06:15.242Z,13.10
2022-09-16T17:08:42.717Z,13.00
2022-09-16T17:11:14.700Z,12.90
2022-09-16T17:13:44.290Z,12.90
2022-09-16T17:16:14.906Z,12.90
2022-09-16T17:18:43.135Z,12.80
2022-09-16T17:21:13.376Z,12.80
2022-09-16T17:23:40.756Z,12.80
2022-09-16T17:26:08.929Z,12.80
2022-09-16T17:28:37.558Z,12.80
2022-09-16T17:31:11.875Z,12.90
2022-09-16T17:33:39.204Z,13.00
2022-09-16T17:36:08.224Z,13.00
2022-09-16T17:38:36.276Z,13.00
2022-09-16T17:41:09.554Z,13.00
2022-09-16T17:43:37.957Z,12.90
2022-09-16T17:46:12.159Z,12.90
2022-09-16T17:48:39.584Z,12.90
2022-09-16T17:51:09.077Z,12.80
2022-09-16T17:53:38.419Z,12.80
2022-09-16T17:56:08.674Z,12.70
2022-09-16T17:58:38.090Z,12.70
2022-09-16T18:01:10.880Z,12.70
2022-09-16T18:03:39.810Z,12.60
2022-09-16T18:06:16.038Z,12.50
2022-09-16T18:08:44.104Z,12.40
2022-09-16T18:11:12.687Z,12.30
2022-09-16T18:13:40.488Z,12.10
2022-09-16T18:16:08.369Z,12.00
2022-09-16T18:18:38.834Z,11.90
2022-09-16T18:21:08.080Z,11.80
2022-09-16T18:23:38.064Z,11.80
2022-09-16T18:26:07.048Z,11.70
2022-09-16T18:29:08.139Z,11.60
2022-09-16T18:31:30.165Z,11.50
2022-09-16T18:33:57.270Z,11.50
2022-09-16T18:36:26.072Z,11.40
2022-09-16T18:38:58.187Z,11.40
2022-09-16T18:41:37.104Z,11.40
2022-09-16T18:44:07.861Z,11.30
2022-09-16T18:46:37.116Z,11.30
2022-09-16T18:49:05.436Z,11.20
2022-09-16T18:51:35.484Z,11.20
2022-09-16T18:54:14.580Z,11.10
2022-09-16T18:56:42.248Z,11.10
2022-09-16T18:59:25.212Z,11.00
2022-09-16T19:01:54.387Z,11.00
2022-09-16T19:04:24.716Z,10.90
2022-09-16T19:06:54.821Z,10.80
2022-09-16T19:09:24.023Z,10.80
2022-09-16T19:11:52.383Z,10.80
2022-09-16T19:14:19.754Z,10.70
2022-09-16T19:16:46.989Z,10.70
2022-09-16T19:19:17.891Z,10.60
2022-09-16T19:21:49.207Z,10.60
2022-09-16T19:24:21.901Z,10.60
2022-09-16T19:26:50.993Z,10.50
2022-09-16T19:29:19.329Z,10.60
2022-09-16T19:31:49.020Z,10.60
2022-09-16T19:34:16.787Z,10.50
2022-09-16T19:36:47.372Z,10.40
2022-09-16T19:39:20.639Z,10.40
2022-09-16T19:41:56.946Z,10.30
2022-09-16T19:44:25.788Z,10.20
2022-09-16T19:46:53.998Z,10.20
2022-09-16T19:49:23.720Z,10.10
2022-09-16T19:51:58.409Z,10.10
2022-09-16T19:54:27.887Z,10.10
2022-09-16T19:56:55.787Z,10.00
2022-09-16T19:59:23.428Z,10.00
2022-09-16T20:01:51.160Z,10.00
2022-09-16T20:04:22.506Z,10.00
2022-09-16T20:06:49.827Z,10.00
2022-09-16T20:09:17.256Z,10.00
2022-09-16T20:11:45.913Z,10.00
2022-09-16T20:14:16.175Z,9.90
2022-09-16T20:16:46.639Z,9.90
2022-09-16T20:19:16.327Z,9.90
2022-09-16T20:21:44.011Z,10.00
2022-09-16T20:24:17.588Z,9.90
2022-09-16T20:26:50.468Z,9.90
2022-09-16T20:29:20.892Z,9.90
2022-09-16T20:31:49.952Z,9.90
2022-09-16T20:34:17.397Z,9.90
2022-09-16T20:36:46.002Z,10.00
2022-09-16T20:39:15.707Z,10.00
2022-09-16T20:41:43.277Z,10.00
2022-09-16T20:44:14.744Z,9.90
2022-09-16T20:46:42.254Z,10.00
2022-09-16T20:49:14.545Z,9.90
2022-09-16T20:51:41.922Z,9.90
2022-09-16T20:54:11.243Z,9.90
2022-09-16T20:56:41.937Z,9.90
2022-09-16T20:59:11.651Z,9.90
2022-09-16T21:01:40.354Z,9.90
2022-09-16T21:04:18.884Z,9.90
2022-09-16T21:06:49.189Z,9.90
2022-09-16T21:09:17.936Z,9.90
2022-09-16T21:11:49.764Z,9.90
2022-09-16T21:14:19.428Z,9.90
2022-09-16T21:16:49.832Z,9.90
2022-09-16T21:19:17.086Z,9.80
2022-09-16T21:21:45.284Z,9.80
2022-09-16T21:24:15.519Z,9.80
2022-09-16T21:26:45.975Z,9.80
2022-09-16T21:29:16.030Z,9.80
2022-09-16T21:31:45.428Z,9.70
2022-09-16T21:34:16.213Z,9.70
2022-09-16T21:36:44.024Z,9.70
2022-09-16T21:39:12.715Z,9.70
2022-09-16T21:41:40.105Z,9.70
2022-09-16T21:44:07.350Z,9.70
2022-09-16T21:46:40.015Z,9.70
2022-09-16T21:49:09.945Z,9.70
2022-09-16T21:51:37.833Z,9.70
2022-09-16T21:54:10.044Z,9.70
2022-09-16T21:56:38.607Z,9.60
2022-09-16T21:59:06.714Z,9.60
2022-09-16T22:01:34.979Z,9.60
2022-09-16T22:04:04.813Z,9.60
2022-09-16T22:06:34.919Z,9.60
2022-09-16T22:09:03.375Z,9.60
2022-09-16T22:11:32.307Z,9.60
2022-09-16T22:14:01.082Z,9.60
2022-09-16T22:16:30.892Z,9.60
2022-09-16T22:19:04.424Z,9.60
2022-09-16T22:21:34.449Z,9.70
2022-09-16T22:24:05.249Z,9.70
2022-09-16T22:26:33.005Z,9.70
2022-09-16T22:29:00.359Z,9.70
2022-09-16T22:31:30.270Z,9.70
2022-09-16T22:34:00.495Z,9.70
2022-09-16T22:36:29.589Z,9.70
2022-09-16T22:38:59.677Z,9.70
2022-09-16T22:41:28.847Z,9.70
2022-09-16T22:43:56.236Z,9.80
2022-09-16T22:46:45.140Z,9.80
2022-09-16T22:49:13.313Z,9.90
2022-09-16T22:51:41.006Z,9.90
2022-09-16T22:54:11.188Z,9.90
2022-09-16T22:56:38.561Z,9.90
2022-09-16T22:59:06.711Z,9.90
2022-09-16T23:01:37.827Z,9.90
2022-09-16T23:04:06.996Z,9.90
2022-09-16T23:06:37.275Z,9.80
2022-09-16T23:09:06.698Z,9.80
2022-09-16T23:11:35.199Z,9.70
2022-09-16T23:14:03.117Z,9.80
2022-09-16T23:16:33.099Z,9.70
2022-09-16T23:19:03.009Z,9.70
2022-09-16T23:21:32.608Z,9.70
2022-09-16T23:24:01.713Z,9.70
2022-09-16T23:26:32.434Z,9.70
2022-09-16T23:29:02.143Z,9.70
2022-09-16T23:31:33.051Z,9.70
2022-09-16T23:34:00.495Z,9.60
2022-09-16T23:36:28.713Z,9.60
2022-09-16T23:38:56.175Z,9.50
2022-09-16T23:41:27.053Z,9.50
2022-09-16T23:43:56.162Z,9.50
2022-09-16T23:46:28.388Z,9.40
2022-09-16T23:48:55.829Z,9.40
2022-09-16T23:51:28.043Z,9.40
2022-09-16T23:53:57.469Z,9.30
2022-09-16T23:56:24.790Z,9.30
2022-09-16T23:58:52.096Z,9.30
